Time;durP1;ratioP1;P1;durP2;ratioP2;P2;SDS_P1;SDS_P2;PMS_P1;PMS_P2;Temp;Humidity;BMP_temperature;BMP_pressure;BME280_temperature;BME280_humidity;BME280_pressure;Samples;Min_cycle;Max_cycle;Signal;HPM_P1;HPM_P2
2022/04/05 00:01:30;;;;;;;20.13;4.07;;;;;;;6.33;100.00;100256.88;6155563;23;20310;-79
2022/04/05 00:03:59;;;;;;;16.88;3.67;;;;;;;6.31;100.00;100259.44;6128501;23;20021;-77
2022/04/05 00:06:27;;;;;;;16.00;3.15;;;;;;;6.31;100.00;100255.97;6090929;23;20024;-78
2022/04/05 00:08:56;;;;;;;17.52;3.35;;;;;;;6.30;100.00;100259.47;6073382;23;20029;-77
2022/04/05 00:11:24;;;;;;;21.80;4.10;;;;;;;6.29;100.00;100252.47;6129380;23;20021;-77
2022/04/05 00:13:53;;;;;;;25.27;3.67;;;;;;;6.28;100.00;100258.56;6120968;23;20024;-77
2022/04/05 00:16:21;;;;;;;26.05;3.58;;;;;;;6.28;100.00;100250.72;6095698;23;20032;-77
2022/04/05 00:18:50;;;;;;;21.67;4.45;;;;;;;6.28;100.00;100255.97;6135205;23;20017;-78
2022/04/05 00:21:18;;;;;;;21.83;3.95;;;;;;;6.25;100.00;100260.25;6156714;23;20028;-77
2022/04/05 00:23:47;;;;;;;32.17;5.82;;;;;;;6.23;100.00;100267.22;6130006;23;20017;-77
2022/04/05 00:26:16;;;;;;;28.20;4.63;;;;;;;6.23;100.00;100268.97;6183335;23;20036;-77
2022/04/05 00:28:44;;;;;;;26.88;4.20;;;;;;;6.22;100.00;100260.25;6096171;23;20020;-78
2022/04/05 00:31:13;;;;;;;22.73;4.13;;;;;;;6.24;100.00;100270.75;6111767;23;20021;-78
2022/04/05 00:33:41;;;;;;;25.90;4.55;;;;;;;6.24;100.00;100269.00;6135674;23;20025;-78
2022/04/05 00:36:10;;;;;;;25.15;4.80;;;;;;;6.24;100.00;100274.22;6160998;23;20354;-78
2022/04/05 00:38:38;;;;;;;29.85;4.78;;;;;;;6.25;100.00;100270.72;6106879;23;20035;-78
2022/04/05 00:41:07;;;;;;;20.88;4.18;;;;;;;6.22;100.00;100273.34;6113586;23;20017;-78
2022/04/05 00:43:35;;;;;;;24.13;4.90;;;;;;;6.22;100.00;100273.34;6134358;23;20025;-78
2022/04/05 00:46:03;;;;;;;20.67;3.30;;;;;;;6.17;100.00;100277.63;6114114;23;20028;-78
2022/04/05 00:48:49;;;;;;;18.50;3.90;;;;;;;6.09;100.00;100270.53;6069642;23;20051;-78
2022/04/05 00:51:19;;;;;;;23.15;3.25;;;;;;;6.04;100.00;100273.09;6129689;23;20025;-78
2022/04/05 00:53:51;;;;;;;22.05;3.63;;;;;;;5.97;100.00;100268.66;6157534;23;20347;-78
2022/04/05 00:56:22;;;;;;;9.65;3.00;;;;;;;5.91;100.00;100265.94;6162048;23;20450;-77
2022/04/05 00:58:53;;;;;;;12.50;2.67;;;;;;;5.86;100.00;100277.22;6146815;23;20032;-77
2022/04/05 01:01:22;;;;;;;12.48;2.80;;;;;;;5.81;100.00;100273.66;6160374;23;20024;-78
2022/04/05 01:03:53;;;;;;;15.90;3.45;;;;;;;5.78;100.00;100276.22;6178336;23;20021;-78
2022/04/05 01:06:29;;;;;;;10.63;2.47;;;;;;;5.75;100.00;100286.66;6182591;23;20029;-77
2022/04/05 01:08:57;;;;;;;13.05;2.33;;;;;;;5.74;100.00;100290.09;6155651;23;20013;-77
2022/04/05 01:11:26;;;;;;;13.95;2.60;;;;;;;5.71;100.00;100282.25;6159319;23;20010;-77
2022/04/05 01:13:54;;;;;;;12.50;2.10;;;;;;;5.69;100.00;100283.97;6162596;23;20294;-78
2022/04/05 01:16:23;;;;;;;15.85;2.92;;;;;;;5.67;100.00;100296.09;6152305;23;20028;-77
2022/04/05 01:18:52;;;;;;;16.05;3.20;;;;;;;5.65;100.00;100296.09;6091137;23;20021;-78
2022/04/05 01:21:20;;;;;;;19.88;3.70;;;;;;;5.63;100.00;100309.97;6112280;23;20013;-77
2022/04/05 01:24:10;;;;;;;21.58;2.85;;;;;;;5.62;100.00;100293.44;6157594;23;20020;-78
2022/04/05 01:26:51;;;;;;;21.85;2.97;;;;;;;5.61;100.00;100303.84;6160169;23;20452;-78
2022/04/05 01:29:21;;;;;;;15.57;2.28;;;;;;;5.59;100.00;100305.56;6127508;23;20028;-78
2022/04/05 01:31:54;;;;;;;16.55;3.10;;;;;;;5.56;100.00;100306.41;6143954;23;20028;-78
2022/04/05 01:34:26;;;;;;;15.63;3.45;;;;;;;5.53;100.00;100298.53;6123642;23;20028;-78
2022/04/05 01:36:56;;;;;;;18.95;3.53;;;;;;;5.50;100.00;100301.13;6184287;23;20318;-78
2022/04/05 01:39:30;;;;;;;14.85;3.63;;;;;;;5.47;100.00;100309.75;6161999;23;20350;-79
2022/04/05 01:42:12;;;;;;;15.25;3.03;;;;;;;5.43;100.00;100302.75;6148578;23;20368;-78
2022/04/05 01:44:42;;;;;;;13.73;3.03;;;;;;;5.40;100.00;100307.03;6154642;23;20474;-77
2022/04/05 01:47:16;;;;;;;17.63;2.83;;;;;;;5.38;100.00;100316.59;6129611;23;20347;-78
2022/04/05 01:49:50;;;;;;;21.73;4.07;;;;;;;5.34;100.00;100320.00;6159004;23;20021;-78
2022/04/05 01:52:18;;;;;;;14.68;2.85;;;;;;;5.33;100.00;100318.22;6104340;23;20028;-78
2022/04/05 01:54:47;;;;;;;27.52;3.35;;;;;;;5.32;100.00;100313.88;6160294;23;20073;-78
2022/04/05 01:57:15;;;;;;;23.88;4.07;;;;;;;5.31;100.00;100312.97;6083183;23;20473;-78
2022/04/05 01:59:44;;;;;;;16.70;3.28;;;;;;;5.30;100.00;100311.25;6160856;23;20024;-78
2022/04/05 02:02:12;;;;;;;15.32;2.95;;;;;;;5.28;100.00;100305.97;6147527;23;20027;-78
2022/04/05 02:04:41;;;;;;;21.15;2.50;;;;;;;5.27;100.00;100319.91;6076781;23;20026;-78
2022/04/05 02:07:11;;;;;;;14.50;2.85;;;;;;;5.26;100.00;100315.53;6147944;23;20052;-77
2022/04/05 02:09:40;;;;;;;21.95;3.28;;;;;;;5.25;100.00;100320.72;6150506;23;20462;-78
2022/04/05 02:12:10;;;;;;;17.02;3.95;;;;;;;5.23;100.00;100315.47;6184820;23;20203;-78
2022/04/05 02:14:59;;;;;;;23.08;3.65;;;;;;;5.24;100.00;100334.66;6128812;23;20032;-78
2022/04/05 02:17:47;;;;;;;26.60;4.50;;;;;;;5.22;100.00;100326.78;6114186;23;20028;-77
2022/04/05 02:20:21;;;;;;;20.98;3.28;;;;;;;5.22;100.00;100321.56;6129958;23;20017;-77
2022/04/05 02:22:50;;;;;;;28.77;4.53;;;;;;;5.22;100.00;100326.78;6153109;23;20024;-78
2022/04/05 02:25:26;;;;;;;17.42;3.90;;;;;;;5.22;100.00;100328.53;6104622;23;20021;-77
2022/04/05 02:27:58;;;;;;;21.63;4.40;;;;;;;5.22;100.00;100334.63;6133603;23;20697;-79
2022/04/05 02:30:47;;;;;;;14.55;3.10;;;;;;;5.22;100.00;100341.59;6144770;23;20032;-78
2022/04/05 02:33:18;;;;;;;17.70;2.75;;;;;;;5.22;100.00;100341.59;6147012;23;20024;-77
2022/04/05 02:35:48;;;;;;;17.98;3.28;;;;;;;5.23;100.00;100336.38;6109787;23;20021;-78
2022/04/05 02:38:17;;;;;;;18.27;3.17;;;;;;;5.22;100.00;100332.03;6108332;23;20031;-78
2022/04/05 02:40:46;;;;;;;21.25;3.30;;;;;;;5.23;100.00;100338.13;6148209;23;20474;-77
2022/04/05 02:43:17;;;;;;;16.17;2.55;;;;;;;5.23;100.00;100345.94;6112978;23;20024;-78
2022/04/05 02:45:47;;;;;;;17.75;3.72;;;;;;;5.24;100.00;100335.53;6158145;23;20028;-78
2022/04/05 02:48:17;;;;;;;23.80;3.45;;;;;;;5.24;100.00;100343.38;6113893;23;20451;-78
2022/04/05 02:50:46;;;;;;;21.50;2.92;;;;;;;5.25;100.00;100336.41;6086848;23;20032;-78
2022/04/05 02:53:15;;;;;;;13.90;2.53;;;;;;;5.25;100.00;100337.31;6146857;23;20470;-77
2022/04/05 02:55:45;;;;;;;12.87;2.07;;;;;;;5.23;100.00;100328.53;6123568;23;20025;-78
2022/04/05 02:58:14;;;;;;;14.80;3.40;;;;;;;5.22;100.00;100331.16;6153370;23;20035;-78
2022/04/05 03:00:46;;;;;;;20.02;3.50;;;;;;;5.23;100.00;100330.28;6133866;23;20358;-78
2022/04/05 03:03:17;;;;;;;;;;;;;;;5.22;100.00;100331.16;6113225;23;20361;-77
2022/04/05 03:05:51;;;;;;;15.50;2.90;;;;;;;5.22;100.00;100339.84;6120264;23;19917;-77
2022/04/05 03:08:22;;;;;;;22.13;2.78;;;;;;;5.22;100.00;100344.22;6063958;23;20018;-78
2022/04/05 03:10:52;;;;;;;13.75;2.58;;;;;;;5.23;100.00;100344.19;6073763;23;20325;-77
2022/04/05 03:13:22;;;;;;;23.05;2.67;;;;;;;5.23;100.00;100354.66;6115868;23;20022;-77
2022/04/05 03:15:52;;;;;;;24.15;3.22;;;;;;;5.22;100.00;100346.81;6050415;23;20022;-77
2022/04/05 03:18:22;;;;;;;;;;;;;;;5.20;100.00;100349.41;6124137;23;20018;-77
2022/04/05 03:20:52;;;;;;;17.63;2.45;;;;;;;5.20;100.00;100361.59;6086861;23;20252;-78
2022/04/05 03:23:21;;;;;;;22.35;3.13;;;;;;;5.20;100.00;100357.25;6103026;23;20014;-77
2022/04/05 03:25:50;;;;;;;23.87;3.27;;;;;;;5.20;100.00;100361.59;6069400;23;20014;-78
2022/04/05 03:28:21;;;;;;;14.52;2.85;;;;;;;5.20;100.00;100361.59;6102585;23;20022;-77
2022/04/05 03:30:51;;;;;;;12.75;2.60;;;;;;;5.20;100.00;100361.59;6073320;23;20021;-78
2022/04/05 03:33:22;;;;;;;12.93;2.75;;;;;;;5.20;100.00;100367.69;6090598;23;20025;-77
2022/04/05 03:35:54;;;;;;;11.90;2.60;;;;;;;5.20;100.00;100364.19;6061962;23;20024;-79
2022/04/05 03:38:24;;;;;;;23.13;3.80;;;;;;;5.20;100.00;100354.63;6117066;23;20021;-79
2022/04/05 03:40:53;;;;;;;12.90;3.13;;;;;;;5.20;100.00;100351.16;6083399;23;20090;-79
2022/04/05 03:43:22;;;;;;;10.75;3.10;;;;;;;5.20;100.00;100357.25;6069764;23;20018;-77
2022/04/05 03:45:54;;;;;;;19.40;2.92;;;;;;;5.20;100.00;100351.16;6121876;23;20022;-77
2022/04/05 03:48:26;;;;;;;15.93;3.20;;;;;;;5.20;100.00;100343.31;6124844;23;20014;-77
2022/04/05 03:50:58;;;;;;;12.55;2.38;;;;;;;5.21;100.00;100351.13;6096180;23;20022;-77
2022/04/05 03:53:26;;;;;;;13.77;2.38;;;;;;;5.21;100.00;100348.53;6101376;23;20022;-77
2022/04/05 03:55:57;;;;;;;16.42;3.45;;;;;;;5.20;100.00;100352.00;6068595;23;20041;-79
2022/04/05 03:58:26;;;;;;;20.25;2.83;;;;;;;5.20;100.00;100356.38;6070638;23;20018;-77
2022/04/05 04:00:55;;;;;;;15.13;3.00;;;;;;;5.20;100.00;100357.25;6096081;23;20494;-79
2022/04/05 04:03:30;;;;;;;18.90;3.63;;;;;;;5.21;100.00;100361.59;6128605;23;20018;-78
2022/04/05 04:06:00;;;;;;;12.55;3.38;;;;;;;5.21;100.00;100361.59;6123202;23;20536;-78
2022/04/05 04:08:30;;;;;;;20.50;3.30;;;;;;;5.22;100.00;100360.75;6058728;23;20025;-78
2022/04/05 04:10:59;;;;;;;17.10;2.97;;;;;;;5.22;100.00;100355.53;6119405;23;20026;-78
2022/04/05 04:13:31;;;;;;;15.35;2.85;;;;;;;5.23;100.00;100356.41;6103861;23;20014;-78
2022/04/05 04:16:04;;;;;;;14.95;2.85;;;;;;;5.23;100.00;100361.63;6067821;23;20247;-78
2022/04/05 04:18:36;;;;;;;22.30;4.15;;;;;;;5.21;100.00;100361.59;6095302;23;20018;-78
2022/04/05 04:21:04;;;;;;;28.92;3.90;;;;;;;5.23;100.00;100359.00;6073180;23;20084;-78
2022/04/05 04:23:36;;;;;;;14.38;4.00;;;;;;;5.22;100.00;100349.44;6105476;23;20018;-78
2022/04/05 04:26:06;;;;;;;19.60;3.22;;;;;;;5.22;100.00;100350.31;6062347;23;20592;-78
2022/04/05 04:28:35;;;;;;;19.52;2.90;;;;;;;5.22;100.00;100352.03;6088297;23;20026;-78
2022/04/05 04:31:03;;;;;;;15.75;3.67;;;;;;;5.22;100.00;100346.81;6125528;23;20617;-78
2022/04/05 04:33:32;;;;;;;22.02;3.72;;;;;;;5.23;100.00;100348.56;6126320;23;20482;-78
2022/04/05 04:36:00;;;;;;;12.32;2.70;;;;;;;5.24;100.00;100348.59;6123657;23;20026;-78
2022/04/05 04:38:29;;;;;;;21.70;3.30;;;;;;;5.24;100.00;100343.38;6113766;23;20022;-78
2022/04/05 04:40:58;;;;;;;15.98;3.25;;;;;;;5.24;100.00;100350.34;6122384;23;20021;-78
2022/04/05 04:43:27;;;;;;;29.13;4.07;;;;;;;5.24;100.00;100360.78;6090398;23;20025;-78
2022/04/05 04:46:01;;;;;;;20.00;3.00;;;;;;;5.24;100.00;100363.41;6078079;23;20014;-78
2022/04/05 04:48:30;;;;;;;25.17;2.97;;;;;;;5.24;100.00;100364.25;6127646;23;20030;-78
2022/04/05 04:50:59;;;;;;;23.20;4.07;;;;;;;5.26;100.00;100366.91;6123207;23;20227;-78
2022/04/05 04:53:27;;;;;;;26.88;3.55;;;;;;;5.27;100.00;100377.41;6114436;23;20029;-77
2022/04/05 04:55:56;;;;;;;24.40;3.78;;;;;;;5.28;100.00;100375.66;6097105;23;20029;-77
2022/04/05 04:58:37;;;;;;;23.08;3.33;;;;;;;5.28;100.00;100378.25;6052259;23;20026;-78
2022/04/05 05:01:06;;;;;;;26.48;3.80;;;;;;;5.28;100.00;100381.75;6089347;23;20018;-78
2022/04/05 05:03:35;;;;;;;17.25;3.47;;;;;;;5.27;100.00;100379.09;6070785;23;20352;-78
2022/04/05 05:06:04;;;;;;;25.75;3.92;;;;;;;5.27;100.00;100384.31;6163389;23;20025;-78
2022/04/05 05:08:34;;;;;;;19.73;3.38;;;;;;;5.26;100.00;100373.00;6138815;23;20021;-77
2022/04/05 05:11:04;;;;;;;19.42;4.18;;;;;;;5.25;100.00;100376.50;6118319;23;20025;-78
2022/04/05 05:13:33;;;;;;;23.42;3.00;;;;;;;5.26;100.00;100377.34;6139012;23;20037;-78
2022/04/05 05:16:02;;;;;;;22.02;2.97;;;;;;;5.27;100.00;100379.09;6130588;23;20028;-78
2022/04/05 05:18:31;;;;;;;21.50;3.50;;;;;;;5.26;100.00;100369.53;6105610;23;20027;-77
2022/04/05 05:21:01;;;;;;;16.38;2.80;;;;;;;5.26;100.00;100366.91;6149433;23;20374;-78
2022/04/05 05:23:30;;;;;;;26.67;3.58;;;;;;;5.27;100.00;100366.03;6113360;23;20021;-79
2022/04/05 05:25:58;;;;;;;21.35;3.65;;;;;;;5.27;100.00;100363.44;6120623;23;20120;-78
2022/04/05 05:28:27;;;;;;;26.17;3.85;;;;;;;5.29;100.00;100364.34;6049614;23;20021;-78
2022/04/05 05:30:55;;;;;;;22.42;3.58;;;;;;;5.30;100.00;100373.06;6152609;23;20020;-78
2022/04/05 05:33:24;;;;;;;26.65;3.65;;;;;;;5.30;100.00;100371.31;6127260;23;20025;-78
2022/04/05 05:35:53;;;;;;;25.75;3.60;;;;;;;5.31;100.00;100378.28;6133137;23;20021;-78
2022/04/05 05:38:22;;;;;;;21.00;2.97;;;;;;;5.29;100.00;100377.41;6138648;23;20021;-78
2022/04/05 05:40:50;;;;;;;18.15;3.20;;;;;;;5.31;100.00;100377.44;6093332;23;20028;-78
2022/04/05 05:43:21;;;;;;;19.35;4.43;;;;;;;5.32;100.00;100371.38;6108482;23;20021;-78
2022/04/05 05:45:49;;;;;;;;;;;;;;;5.31;100.00;100375.69;6128252;23;20262;-78
2022/04/05 05:48:18;;;;;;;21.98;3.08;;;;;;;5.33;100.00;100373.09;6179804;23;19927;-78
2022/04/05 05:50:48;;;;;;;24.98;3.30;;;;;;;5.34;100.00;100377.50;6132100;23;20016;-79
2022/04/05 05:53:17;;;;;;;15.18;2.60;;;;;;;5.34;100.00;100386.19;6080737;23;20032;-78
2022/04/05 05:55:48;;;;;;;14.70;2.88;;;;;;;5.36;100.00;100386.22;6097869;23;20489;-79
2022/04/05 05:58:16;;;;;;;10.40;2.35;;;;;;;5.36;100.00;100387.09;6054843;23;20025;-78
2022/04/05 06:00:45;;;;;;;17.73;3.30;;;;;;;5.38;100.00;100393.22;6091142;23;20024;-78
2022/04/05 06:03:14;;;;;;;22.45;3.47;;;;;;;5.42;100.00;100396.78;6134159;23;20028;-77
2022/04/05 06:05:43;;;;;;;17.83;3.35;;;;;;;5.45;100.00;100399.47;6123728;23;20017;-78
2022/04/05 06:08:32;;;;;;;18.35;3.58;;;;;;;5.46;100.00;100401.19;6137119;23;20021;-77
2022/04/05 06:11:05;;;;;;;16.08;4.22;;;;;;;5.49;100.00;100400.38;6127252;23;20021;-77
2022/04/05 06:13:34;;;;;;;11.02;3.22;;;;;;;5.53;100.00;100394.34;6098534;23;20032;-78
2022/04/05 06:16:04;;;;;;;26.17;2.70;;;;;;;5.56;100.00;100397.91;6174931;23;20017;-77
2022/04/05 06:18:32;;;;;;;21.25;4.55;;;;;;;5.62;100.00;100397.13;6152235;23;20032;-77
2022/04/05 06:21:01;;;;;;;22.27;3.78;;;;;;;5.67;100.00;100395.44;6108062;23;20021;-78
2022/04/05 06:23:29;;;;;;;19.98;3.25;;;;;;;5.71;100.00;100401.59;6125339;23;20021;-77
2022/04/05 06:26:01;;;;;;;12.55;2.53;;;;;;;5.75;100.00;100401.69;6105336;23;20367;-80
2022/04/05 06:28:32;;;;;;;18.08;2.70;;;;;;;5.77;100.00;100402.59;6150599;23;20454;-77
2022/04/05 06:31:01;;;;;;;22.75;3.83;;;;;;;5.79;100.00;100403.50;6133103;23;20056;-80
2022/04/05 06:33:29;;;;;;;15.65;3.03;;;;;;;5.83;100.00;100388.72;6131061;23;20021;-78
2022/04/05 06:35:59;;;;;;;22.80;3.22;;;;;;;5.86;100.00;100394.03;6094849;23;20543;-78
2022/04/05 06:38:28;;;;;;;14.45;3.03;;;;;;;5.90;100.00;100413.22;6160881;23;20032;-78
2022/04/05 06:41:01;;;;;;;29.27;3.22;;;;;;;5.93;100.00;100410.66;6157882;23;20355;-78
2022/04/05 06:43:30;;;;;;;18.52;3.08;;;;;;;5.94;100.00;100401.97;6164721;23;20330;-78
2022/04/05 06:45:58;;;;;;;16.55;3.42;;;;;;;5.96;100.00;100402.91;6124272;23;20017;-78
2022/04/05 06:48:27;;;;;;;19.27;3.70;;;;;;;5.99;100.00;100411.69;6107599;23;20470;-79
2022/04/05 06:50:55;;;;;;;11.55;2.95;;;;;;;6.03;100.00;100404.72;6153917;23;20028;-78
2022/04/05 06:53:24;;;;;;;18.20;2.95;;;;;;;6.06;100.00;100404.78;6126084;23;20024;-78
2022/04/05 06:55:53;;;;;;;15.32;2.97;;;;;;;6.11;100.00;100416.19;6186747;23;20020;-78
2022/04/05 06:58:21;;;;;;;15.30;3.17;;;;;;;6.13;100.00;100414.50;6171795;23;20151;-78
2022/04/05 07:00:50;;;;;;;23.35;3.63;;;;;;;6.16;100.00;100417.16;6098582;23;20025;-80
2022/04/05 07:03:19;;;;;;;20.40;3.47;;;;;;;6.17;100.00;100415.41;6115259;23;20029;-77
2022/04/05 07:05:48;;;;;;;28.13;3.38;;;;;;;6.18;100.00;100411.91;6122926;23;20024;-77
2022/04/05 07:08:17;;;;;;;17.45;3.47;;;;;;;6.22;100.00;100413.75;6090635;23;20033;-78
2022/04/05 07:10:50;;;;;;;21.08;4.50;;;;;;;6.25;100.00;100405.91;6159245;23;20028;-77
2022/04/05 07:13:19;;;;;;;20.92;3.53;;;;;;;6.28;100.00;100403.34;6108979;23;20250;-77
2022/04/05 07:15:48;;;;;;;16.13;3.45;;;;;;;6.32;100.00;100396.44;6145052;23;20024;-77
2022/04/05 07:18:17;;;;;;;22.75;4.15;;;;;;;6.36;100.00;100399.09;6127092;23;20159;-78
2022/04/05 07:20:46;;;;;;;20.80;3.35;;;;;;;6.41;100.00;100393.94;6096827;23;20343;-78
2022/04/05 07:23:17;;;;;;;19.95;3.47;;;;;;;6.47;100.00;100391.41;6125956;23;20159;-78
2022/04/05 07:25:46;;;;;;;14.10;3.88;;;;;;;6.52;100.00;100400.19;6177688;23;20342;-78
2022/04/05 07:28:16;;;;;;;21.55;3.75;;;;;;;6.57;100.00;100408.97;6147863;23;20025;-79
2022/04/05 07:30:44;;;;;;;30.95;4.82;;;;;;;6.60;100.00;100400.28;6138634;23;20021;-79
2022/04/05 07:33:13;;;;;;;22.17;3.22;;;;;;;6.58;100.00;100397.63;6117988;23;20202;-78
2022/04/05 07:35:41;;;;;;;15.50;3.70;;;;;;;6.60;100.00;100398.53;6182454;23;20017;-79
2022/04/05 07:38:10;;;;;;;22.38;3.85;;;;;;;6.61;100.00;100397.66;6118188;23;20559;-78
2022/04/05 07:40:48;;;;;;;18.17;3.30;;;;;;;6.61;100.00;100408.13;6127294;23;20353;-78
2022/04/05 07:43:27;;;;;;;21.00;4.30;;;;;;;6.62;100.00;100402.06;6111130;23;20625;-78
2022/04/05 07:45:56;;;;;;;13.73;3.10;;;;;;;6.64;100.00;100402.94;6118639;23;20047;-77
2022/04/05 07:48:29;;;;;;;18.77;2.72;;;;;;;6.68;100.00;100403.84;6148715;23;20031;-77
2022/04/05 07:51:00;;;;;;;20.02;3.00;;;;;;;6.70;100.00;100407.38;6138255;23;20032;-77
2022/04/05 07:53:28;;;;;;;14.10;2.85;;;;;;;6.72;100.00;100397.78;6135929;23;20017;-77
2022/04/05 07:55:59;;;;;;;16.15;3.42;;;;;;;6.78;100.00;100397.84;6109003;23;20013;-77
2022/04/05 07:58:28;;;;;;;22.65;3.15;;;;;;;6.84;100.00;100404.91;6134907;23;20032;-78
2022/04/05 08:00:57;;;;;;;26.80;4.20;;;;;;;6.88;100.00;100411.06;6092464;23;20024;-77
2022/04/05 08:03:27;;;;;;;19.55;3.38;;;;;;;6.90;100.00;100412.84;6120198;23;20032;-77
2022/04/05 08:05:56;;;;;;;14.50;2.47;;;;;;;6.91;100.00;100404.13;6067529;23;20028;-78
2022/04/05 08:08:25;;;;;;;14.70;3.03;;;;;;;6.90;100.00;100405.00;6094611;23;20031;-79
2022/04/05 08:11:14;;;;;;;22.58;4.40;;;;;;;6.90;100.00;100405.00;6134908;23;20139;-76
2022/04/05 08:13:42;;;;;;;10.48;2.75;;;;;;;6.90;100.00;100397.13;6110595;23;20036;-77
2022/04/05 08:16:11;;;;;;;16.65;2.88;;;;;;;6.90;100.00;100399.75;6140051;23;20017;-78
2022/04/05 08:18:39;;;;;;;17.00;3.08;;;;;;;6.88;100.00;100408.44;6119787;23;20044;-78
2022/04/05 08:21:08;;;;;;;21.10;3.05;;;;;;;6.84;100.00;100399.66;6154280;23;20314;-78
2022/04/05 08:23:38;;;;;;;10.90;2.95;;;;;;;6.85;100.00;100396.19;6101062;23;20017;-78
2022/04/05 08:26:07;;;;;;;20.55;3.80;;;;;;;6.87;100.00;100404.09;6154934;23;20017;-78
2022/04/05 08:28:35;;;;;;;20.85;3.10;;;;;;;6.89;100.00;100404.97;6160911;23;20032;-78
2022/04/05 08:31:04;;;;;;;20.15;4.45;;;;;;;6.91;100.00;100398.00;6115878;23;20016;-78
2022/04/05 08:33:34;;;;;;;15.10;3.33;;;;;;;6.93;100.00;100401.53;6111180;23;20032;-82
2022/04/05 08:36:03;;;;;;;23.27;3.37;;;;;;;6.91;100.00;100403.25;6112385;23;20029;-78
2022/04/05 08:38:31;;;;;;;16.85;2.78;;;;;;;6.92;100.00;100391.88;6098625;23;20245;-77
2022/04/05 08:41:04;;;;;;;18.50;3.47;;;;;;;6.94;100.00;100393.69;6121599;23;20021;-77
2022/04/05 08:43:35;;;;;;;12.38;2.83;;;;;;;6.96;100.00;100402.44;6153403;23;20032;-78
2022/04/05 08:46:06;;;;;;;12.80;2.70;;;;;;;6.97;100.00;100398.94;6136089;23;20143;-78
2022/04/05 08:48:35;;;;;;;11.27;2.60;;;;;;;7.00;100.00;100395.50;6158087;23;20199;-79
2022/04/05 08:51:05;;;;;;;19.10;2.90;;;;;;;7.04;100.00;100399.91;6113661;23;20032;-78
2022/04/05 08:53:34;;;;;;;19.27;3.53;;;;;;;7.09;100.00;100392.97;6097905;23;20025;-79
2022/04/05 08:56:02;;;;;;;10.07;2.40;;;;;;;7.11;100.00;100398.22;6123567;23;20135;-76
2022/04/05 08:58:31;;;;;;;15.85;3.10;;;;;;;7.12;100.00;100395.59;6162285;23;20027;-78
2022/04/05 09:00:59;;;;;;;13.73;3.33;;;;;;;7.10;100.00;100394.72;6130666;23;20028;-76
2022/04/05 09:03:32;;;;;;;14.95;3.33;;;;;;;7.14;100.00;100400.88;6102093;23;20021;-77
2022/04/05 09:06:27;;;;;;;17.80;3.03;;;;;;;7.14;100.00;100403.47;6103709;23;20402;-79
2022/04/05 09:09:13;;;;;;;20.38;3.70;;;;;;;7.11;100.00;100411.34;6141068;23;20021;-77
2022/04/05 09:11:52;;;;;;;19.15;4.22;;;;;;;7.09;100.00;100408.69;6151185;23;20039;-77
2022/04/05 09:14:23;;;;;;;12.88;3.08;;;;;;;7.13;100.00;100404.38;6151077;23;20032;-78
2022/04/05 09:17:06;;;;;;;;;;;;;;;7.15;100.00;100398.25;6148289;23;20027;-76
2022/04/05 09:19:45;;;;;;;11.32;2.55;;;;;;;7.23;100.00;100398.34;6160990;23;19920;-77
2022/04/05 09:22:42;;;;;;;11.45;2.70;;;;;;;7.32;100.00;100401.03;6082222;23;20040;-77
2022/04/05 09:25:16;;;;;;;10.70;2.85;;;;;;;7.33;100.00;100402.78;6178595;23;20017;-77
2022/04/05 09:27:50;;;;;;;14.18;2.33;;;;;;;7.34;100.00;100407.19;6127371;23;20017;-77
2022/04/05 09:30:23;;;;;;;9.65;2.30;;;;;;;7.36;100.00;100404.56;6158917;23;20210;-76
2022/04/05 09:32:52;;;;;;;9.85;2.33;;;;;;;7.37;100.00;100404.59;6143999;23;20471;-76
2022/04/05 09:35:28;;;;;;;11.80;2.90;;;;;;;7.36;100.00;100400.22;6134855;23;20025;-76
2022/04/05 09:38:10;;;;;;;7.93;2.70;;;;;;;7.38;100.00;100390.59;6127233;23;20028;-76
2022/04/05 09:40:41;;;;;;;16.92;2.90;;;;;;;7.37;100.00;100399.34;6181430;23;20017;-76
2022/04/05 09:43:31;;;;;;;9.23;3.38;;;;;;;7.39;100.00;100402.88;6154653;23;20350;-77
2022/04/05 09:46:00;;;;;;;11.15;2.80;;;;;;;7.38;100.00;100403.72;6108830;23;20024;-77
2022/04/05 09:48:39;;;;;;;10.67;3.10;;;;;;;7.34;100.00;100399.31;6109211;23;20346;-77
2022/04/05 09:51:17;;;;;;;12.77;3.20;;;;;;;7.32;100.00;100405.41;6132740;23;20021;-77
2022/04/05 09:53:57;;;;;;;13.20;2.72;;;;;;;7.28;100.00;100404.50;6130997;23;20024;-77
2022/04/05 09:56:31;;;;;;;5.97;2.70;;;;;;;7.24;100.00;100402.72;6097786;23;20025;-76
2022/04/05 09:59:12;;;;;;;12.18;2.58;;;;;;;7.20;100.00;100412.31;6141100;23;20032;-74
2022/04/05 10:01:41;;;;;;;10.38;2.35;;;;;;;7.10;100.00;100414.81;6176694;23;20017;-75
2022/04/05 10:04:33;;;;;;;14.82;2.50;;;;;;;7.01;100.00;100406.00;6126561;23;20224;-74
2022/04/05 10:07:03;;;;;;;8.55;2.35;;;;;;;6.99;100.00;100407.72;6134234;23;20028;-73
2022/04/05 10:09:32;;;;;;;12.80;2.47;;;;;;;6.98;100.00;100408.56;6148941;23;20024;-73
2022/04/05 10:12:02;;;;;;;11.23;2.50;;;;;;;6.97;100.00;100401.56;6117679;23;20366;-73
2022/04/05 10:14:31;;;;;;;12.57;2.55;;;;;;;6.96;100.00;100406.81;6125404;23;20029;-73
2022/04/05 10:16:59;;;;;;;14.30;2.25;;;;;;;6.92;100.00;100400.66;6168609;23;20021;-73
2022/04/05 10:19:29;;;;;;;9.82;2.28;;;;;;;6.91;100.00;100405.88;6111389;23;20036;-73
2022/04/05 10:21:58;;;;;;;13.20;2.13;;;;;;;6.88;100.00;100405.81;6113903;23;20025;-73
2022/04/05 10:24:28;;;;;;;13.75;1.70;;;;;;;6.85;100.00;100409.28;6135167;23;20490;-74
2022/04/05 10:26:56;;;;;;;10.68;2.33;;;;;;;6.84;100.00;100407.53;6114822;23;20463;-74
2022/04/05 10:29:26;;;;;;;9.82;2.42;;;;;;;6.83;100.00;100401.41;6130773;23;20281;-73
2022/04/05 10:32:02;;;;;;;10.05;2.38;;;;;;;6.91;100.00;100398.88;6106419;23;20021;-75
2022/04/05 10:34:40;;;;;;;9.88;2.17;;;;;;;6.99;100.00;100405.09;6134452;23;20029;-73
2022/04/05 10:37:10;;;;;;;9.73;2.30;;;;;;;7.08;100.00;100400.81;6148146;23;20473;-72
2022/04/05 10:39:40;;;;;;;8.32;2.08;;;;;;;7.14;100.00;100395.63;6114726;23;20020;-73
2022/04/05 10:42:16;;;;;;;10.38;1.98;;;;;;;7.18;100.00;100392.16;6167885;23;20351;-73
2022/04/05 10:45:13;;;;;;;16.52;3.05;;;;;;;7.23;100.00;100401.81;6139690;23;20190;-73
2022/04/05 10:48:20;;;;;;;14.40;2.33;;;;;;;7.25;100.00;100400.97;6151011;23;20642;-73
2022/04/05 10:51:01;;;;;;;8.55;2.03;;;;;;;7.22;100.00;100400.09;6114896;23;20032;-73
2022/04/05 10:53:38;;;;;;;10.15;2.10;;;;;;;7.26;100.00;100405.34;6164765;23;20466;-73
2022/04/05 10:56:08;;;;;;;7.60;1.92;;;;;;;7.24;100.00;100400.09;6152284;23;20022;-73
2022/04/05 10:58:42;;;;;;;8.50;1.95;;;;;;;7.26;100.00;100390.50;6132708;23;20283;-73
2022/04/05 11:01:19;;;;;;;5.03;1.98;;;;;;;7.29;100.00;100400.13;6124263;23;20033;-74
2022/04/05 11:04:12;;;;;;;11.93;2.45;;;;;;;7.27;100.00;100389.63;6142148;23;20263;-74
2022/04/05 11:06:59;;;;;;;6.57;1.92;;;;;;;7.29;100.00;100394.91;6128102;23;20021;-73
2022/04/05 11:09:41;;;;;;;9.75;1.95;;;;;;;7.30;100.00;100394.91;6147846;23;20024;-73
2022/04/05 11:12:23;;;;;;;8.77;2.20;;;;;;;7.35;100.00;100395.84;6159292;23;20047;-73
2022/04/05 11:15:08;;;;;;;7.93;2.00;;;;;;;7.39;100.00;100388.84;6122694;23;20021;-74
2022/04/05 11:17:37;;;;;;;5.15;1.70;;;;;;;7.45;100.00;100383.69;6168640;23;20051;-73
2022/04/05 11:20:07;;;;;;;5.95;1.83;;;;;;;7.48;100.00;100381.06;6121721;23;20017;-80
2022/04/05 11:22:39;;;;;;;7.82;1.55;;;;;;;7.51;100.00;100380.25;6135281;23;20029;-80
2022/04/05 11:25:30;;;;;;;6.50;2.40;;;;;;;7.52;100.00;100376.75;6086788;23;20028;-80
2022/04/05 11:28:16;;;;;;;4.20;1.52;;;;;;;7.51;100.00;100375.00;6124742;23;20021;-81
2022/04/05 11:31:02;;;;;;;9.07;1.98;;;;;;;7.46;100.00;100377.56;6157439;23;20234;-80
2022/04/05 11:33:31;;;;;;;6.65;1.73;;;;;;;7.42;100.00;100384.53;6125271;23;20446;-80
2022/04/05 11:36:09;;;;;;;6.88;1.45;;;;;;;7.44;100.00;100383.66;6158752;23;20032;-80
2022/04/05 11:38:40;;;;;;;7.90;2.45;;;;;;;7.46;100.00;100384.56;6135837;23;20021;-80
2022/04/05 11:44:21;;;;;;;9.25;2.35;;;;;;;7.54;100.00;100370.66;6151426;23;20028;-80